Time;durP1;ratioP1;P1;durP2;ratioP2;P2;SDS_P1;SDS_P2;PMS_P1;PMS_P2;Temp;Humidity;BMP_temperature;BMP_pressure;BME280_temperature;BME280_humidity;BME280_pressure;Samples;Min_cycle;Max_cycle;Signal;HPM_P1;HPM_P2
2022/02/10 00:17:32;;;;;;;2.38;1.50;;;;;;;;;;4998209;28;20042;-46
2022/02/10 00:34:08;;;;;;;1.77;1.30;;;;;;;;;;5061405;28;20086;-47
2022/02/10 00:36:28;;;;;;;2.78;1.48;;;;;;;;;;5052423;28;20211;-47
2022/02/10 00:39:06;;;;;;;3.90;1.30;;;;;;;;;;5052717;28;20041;-46
2022/02/10 00:41:32;;;;;;;3.30;1.42;;;;;;;;;;5035043;28;20029;-46
2022/02/10 00:43:58;;;;;;;2.97;1.58;;;;;;;;;;5067062;28;20070;-45
2022/02/10 00:46:24;;;;;;;3.88;2.13;;;;;;;;;;5072239;28;20104;-45
2022/02/10 00:48:50;;;;;;;2.38;1.40;;;;;;;;;;5072708;28;20025;-46
2022/02/10 00:51:16;;;;;;;3.05;1.35;;;;;;;;;;5072008;28;20028;-45
2022/02/10 00:53:43;;;;;;;2.38;1.65;;;;;;;;;;5072887;28;20034;-45
2022/02/10 00:56:10;;;;;;;1.92;1.40;;;;;;;;;;5071995;28;20034;-47
2022/02/10 00:58:39;;;;;;;2.08;1.30;;;;;;;;;;5072597;28;20024;-46
2022/02/10 01:12:24;;;;;;;2.08;1.60;;;;;;;;;;5072269;28;20547;-52
2022/02/10 01:30:59;;;;;;;2.25;1.52;;;;;;;;;;5071871;28;20116;-46
2022/02/10 01:33:26;;;;;;;5.78;1.67;;;;;;;;;;5071470;28;20021;-48
2022/02/10 01:35:52;;;;;;;2.80;1.60;;;;;;;;;;5072183;28;20104;-47
2022/02/10 01:38:18;;;;;;;2.33;1.55;;;;;;;;;;5071309;28;20144;-46
2022/02/10 01:41:14;;;;;;;1.80;1.40;;;;;;;;;;5072107;28;20140;-45
2022/02/10 02:05:36;;;;;;;1.92;1.02;;;;;;;;;;5050877;28;20026;-46
2022/02/10 02:08:02;;;;;;;2.33;1.45;;;;;;;;;;5051853;28;20020;-47
2022/02/10 02:10:28;;;;;;;2.33;1.67;;;;;;;;;;5051025;28;20021;-45
2022/02/10 02:12:54;;;;;;;1.98;1.30;;;;;;;;;;5051317;28;20040;-46
2022/02/10 02:15:21;;;;;;;3.00;1.50;;;;;;;;;;5050869;28;20026;-45
2022/02/10 02:17:47;;;;;;;2.65;1.50;;;;;;;;;;5033585;28;20028;-46
2022/02/10 02:20:13;;;;;;;2.08;1.48;;;;;;;;;;5050903;28;20070;-46
2022/02/10 02:22:39;;;;;;;3.25;1.50;;;;;;;;;;5051604;28;20099;-46
2022/02/10 02:25:06;;;;;;;2.50;1.50;;;;;;;;;;5051692;28;20024;-46
2022/02/10 02:27:49;;;;;;;2.28;1.25;;;;;;;;;;5054387;28;20027;-46
2022/02/10 02:30:20;;;;;;;2.63;1.60;;;;;;;;;;5054747;28;20029;-46
2022/02/10 02:33:09;;;;;;;2.67;1.60;;;;;;;;;;5055395;28;20478;-46
2022/02/10 02:35:46;;;;;;;3.58;1.58;;;;;;;;;;5054699;28;20120;-46
2022/02/10 03:06:36;;;;;;;2.15;1.25;;;;;;;;;;5074585;28;20085;-48
2022/02/10 03:08:37;;;;;;;2.35;1.20;;;;;;;;;;5060493;28;20033;-47
2022/02/10 03:11:10;;;;;;;2.67;1.70;;;;;;;;;;5074952;28;20056;-46
2022/02/10 03:13:42;;;;;;;2.30;1.48;;;;;;;;;;5074455;28;20492;-48
2022/02/10 04:11:04;;;;;;;2.15;1.63;;;;;;;;;;5053858;28;20029;-46
2022/02/10 04:13:14;;;;;;;1.92;1.25;;;;;;;;;;5042496;28;20056;-50
2022/02/10 04:16:07;;;;;;;1.80;1.48;;;;;;;;;;5053724;28;20017;-49
2022/02/10 04:19:07;;;;;;;2.58;1.63;;;;;;;;;;5052409;28;20021;-47
2022/02/10 04:21:37;;;;;;;2.60;1.88;;;;;;;;;;5051050;28;20505;-49
2022/02/10 04:27:12;;;;;;;2.05;1.33;;;;;;;;;;5053533;28;20060;-46
2022/02/10 05:01:27;;;;;;;1.63;1.35;;;;;;;;;;5072754;28;20477;-47
2022/02/10 05:04:22;;;;;;;2.97;1.42;;;;;;;;;;5072688;28;20021;-47
2022/02/10 05:23:52;;;;;;;2.40;1.10;;;;;;;;;;5037416;28;20033;-47
2022/02/10 05:34:13;;;;;;;4.22;1.50;;;;;;;;;;5071783;28;20043;-53
2022/02/10 05:36:41;;;;;;;2.00;1.20;;;;;;;;;;5071947;28;20033;-46
2022/02/10 05:39:16;;;;;;;1.55;1.02;;;;;;;;;;5072103;28;20033;-47
2022/02/10 05:42:07;;;;;;;2.33;1.20;;;;;;;;;;5072214;28;20031;-46
2022/02/10 05:44:49;;;;;;;2.40;0.90;;;;;;;;;;5052455;28;20021;-49
2022/02/10 05:52:48;;;;;;;2.13;1.20;;;;;;;;;;5051421;28;20036;-53
2022/02/10 07:10:13;;;;;;;5.78;1.50;;;;;;;;;;5071025;28;20037;-48
2022/02/10 07:16:28;;;;;;;5.88;1.38;;;;;;;;;;5073860;28;20035;-47
2022/02/10 07:46:51;;;;;;;3.97;1.48;;;;;;;;;;5073191;28;20098;-52
2022/02/10 07:58:45;;;;;;;3.42;1.40;;;;;;;;;;5074452;28;20029;-47
2022/02/10 08:55:39;;;;;;;5.72;1.88;;;;;;;;;;5051837;28;20029;-44
2022/02/10 10:02:53;;;;;;;3.28;1.45;;;;;;;;;;5070807;28;20033;-44
2022/02/10 10:08:12;;;;;;;6.28;1.58;;;;;;;;;;5070841;28;20108;-44
2022/02/10 10:24:16;;;;;;;2.53;1.38;;;;;;;;;;5070685;28;20021;-44
2022/02/10 10:49:33;;;;;;;3.30;1.48;;;;;;;;;;5095284;28;20084;-47
2022/02/10 10:54:43;;;;;;;4.38;1.88;;;;;;;;;;5096164;28;20425;-43
2022/02/10 10:57:18;;;;;;;2.10;1.27;;;;;;;;;;5094990;28;20024;-45
2022/02/10 11:39:03;;;;;;;3.35;1.70;;;;;;;;;;5076096;28;20052;-45
2022/02/10 11:41:43;;;;;;;4.65;1.70;;;;;;;;;;5074239;28;20119;-43
2022/02/10 11:44:46;;;;;;;3.78;2.20;;;;;;;;;;5074398;28;20390;-43
2022/02/10 12:29:20;;;;;;;2.08;1.30;;;;;;;;;;5074269;28;20031;-44
2022/02/10 14:14:20;;;;;;;3.33;1.52;;;;;;;;;;5071478;28;20039;-45
2022/02/10 14:16:57;;;;;;;3.92;1.38;;;;;;;;;;5069141;28;20023;-47
2022/02/10 14:27:43;;;;;;;2.70;1.52;;;;;;;;;;5074516;28;20081;-45
2022/02/10 14:30:09;;;;;;;1.75;1.33;;;;;;;;;;5075439;28;20028;-47
2022/02/10 14:32:41;;;;;;;2.72;1.55;;;;;;;;;;5074391;28;20377;-52
2022/02/10 14:35:18;;;;;;;2.60;1.52;;;;;;;;;;5075448;28;20067;-46
2022/02/10 14:38:13;;;;;;;2.17;1.33;;;;;;;;;;5074625;28;20048;-45
2022/02/10 14:41:09;;;;;;;2.97;1.33;;;;;;;;;;5073899;28;20119;-52
2022/02/10 16:18:13;;;;;;;3.33;1.30;;;;;;;;;;5087967;28;20047;-44
2022/02/10 16:20:45;;;;;;;4.20;2.05;;;;;;;;;;5093145;28;20036;-49
2022/02/10 16:23:18;;;;;;;1.77;1.08;;;;;;;;;;5093928;28;20081;-45
2022/02/10 16:25:51;;;;;;;2.20;1.35;;;;;;;;;;5091523;28;20534;-51
2022/02/10 16:28:34;;;;;;;1.60;1.25;;;;;;;;;;5093200;28;20028;-46
2022/02/10 16:31:00;;;;;;;4.00;1.13;;;;;;;;;;5092587;28;20662;-45
2022/02/10 16:33:29;;;;;;;2.47;1.48;;;;;;;;;;5093248;28;20081;-45
2022/02/10 16:35:55;;;;;;;2.40;1.35;;;;;;;;;;5092215;28;20020;-48
2022/02/10 16:38:21;;;;;;;3.25;1.48;;;;;;;;;;5076828;28;20051;-45
2022/02/10 16:40:47;;;;;;;1.88;1.30;;;;;;;;;;5071793;28;20024;-45
2022/02/10 16:43:13;;;;;;;1.55;1.20;;;;;;;;;;5072510;28;20021;-47
2022/02/10 16:45:40;;;;;;;2.00;1.55;;;;;;;;;;5072138;28;20024;-52
2022/02/10 16:48:07;;;;;;;5.88;1.80;;;;;;;;;;5071699;28;20039;-45
2022/02/10 16:50:33;;;;;;;3.50;1.27;;;;;;;;;;5072469;28;20102;-43
2022/02/10 16:53:05;;;;;;;2.63;1.27;;;;;;;;;;5072100;28;20035;-44
2022/02/10 16:55:43;;;;;;;2.57;1.37;;;;;;;;;;5072532;28;20028;-46
2022/02/10 16:58:27;;;;;;;3.10;1.10;;;;;;;;;;5054410;28;20310;-44
2022/02/10 17:20:13;;;;;;;2.95;1.15;;;;;;;;;;5053808;28;20385;-46
2022/02/10 17:25:33;;;;;;;2.70;1.20;;;;;;;;;;5072216;28;20036;-44
2022/02/10 17:28:02;;;;;;;2.25;1.20;;;;;;;;;;5071505;28;20024;-44
2022/02/10 17:46:38;;;;;;;2.22;1.52;;;;;;;;;;5071456;28;20040;-48
2022/02/10 17:52:00;;;;;;;2.80;1.17;;;;;;;;;;5070814;28;20047;-49
2022/02/10 17:54:27;;;;;;;2.50;1.02;;;;;;;;;;5071982;28;20021;-47
2022/02/10 17:56:53;;;;;;;3.35;1.02;;;;;;;;;;5069354;28;20027;-48
2022/02/10 17:59:21;;;;;;;1.00;0.70;;;;;;;;;;5071752;28;20071;-47
2022/02/10 18:01:48;;;;;;;2.78;1.30;;;;;;;;;;5071245;28;20050;-51
2022/02/10 18:04:15;;;;;;;1.52;0.98;;;;;;;;;;5071327;28;20028;-46
2022/02/10 18:06:44;;;;;;;2.53;1.42;;;;;;;;;;5071047;28;20031;-45
2022/02/10 18:14:37;;;;;;;4.03;1.52;;;;;;;;;;5071518;28;20028;-45
2022/02/10 18:19:42;;;;;;;3.95;1.42;;;;;;;;;;5071341;28;20047;-47
2022/02/10 18:30:24;;;;;;;2.22;1.25;;;;;;;;;;5069162;28;20446;-48
2022/02/10 19:01:43;;;;;;;10.63;3.28;;;;;;;;;;5068231;28;20558;-46
2022/02/10 19:03:08;;;;;;;10.75;3.33;;;;;;;;;;5065888;28;20060;-47
2022/02/10 19:08:09;;;;;;;11.88;3.30;;;;;;;;;;5068127;28;20033;-52
2022/02/10 19:10:38;;;;;;;14.13;3.60;;;;;;;;;;5054370;28;20040;-45
2022/02/10 19:13:06;;;;;;;9.90;3.47;;;;;;;;;;5071514;28;20043;-47
2022/02/10 19:15:35;;;;;;;12.15;3.70;;;;;;;;;;5072751;28;20029;-46
2022/02/10 19:18:04;;;;;;;8.23;3.10;;;;;;;;;;5074043;28;20108;-44
2022/02/10 19:20:32;;;;;;;12.05;3.00;;;;;;;;;;5073926;28;20056;-44
2022/02/10 19:22:59;;;;;;;14.30;3.88;;;;;;;;;;5072978;28;20021;-43
2022/02/10 19:25:25;;;;;;;10.85;3.08;;;;;;;;;;5074786;28;20025;-46
2022/02/10 19:27:51;;;;;;;11.02;2.60;;;;;;;;;;5074174;28;20020;-50
2022/02/10 19:30:18;;;;;;;11.35;3.28;;;;;;;;;;5073781;28;20399;-46
2022/02/10 19:33:00;;;;;;;10.93;3.53;;;;;;;;;;5073927;28;20074;-46
2022/02/10 19:35:28;;;;;;;11.52;4.07;;;;;;;;;;5074571;28;20061;-50
2022/02/10 19:37:58;;;;;;;7.70;2.50;;;;;;;;;;5085053;28;20052;-50
2022/02/10 19:40:24;;;;;;;8.18;2.78;;;;;;;;;;5094207;28;20429;-48
2022/02/10 19:42:51;;;;;;;8.18;2.33;;;;;;;;;;5093389;28;20027;-47
2022/02/10 19:45:17;;;;;;;6.88;3.22;;;;;;;;;;5094162;28;20032;-43
2022/02/10 19:47:44;;;;;;;8.57;2.75;;;;;;;;;;5093369;28;20020;-44
2022/02/10 19:50:14;;;;;;;7.53;3.00;;;;;;;;;;5093256;28;20036;-43
2022/02/10 19:52:42;;;;;;;6.85;2.00;;;;;;;;;;5094314;28;20039;-45
2022/02/10 19:55:13;;;;;;;6.53;2.03;;;;;;;;;;5092007;28;20020;-47
2022/02/10 19:57:41;;;;;;;7.78;2.38;;;;;;;;;;5094981;28;20012;-48
2022/02/10 20:00:11;;;;;;;8.00;2.75;;;;;;;;;;5092794;28;20042;-53
2022/02/10 20:02:37;;;;;;;9.93;3.17;;;;;;;;;;5093597;28;20545;-45
2022/02/10 20:05:03;;;;;;;5.30;2.35;;;;;;;;;;5093183;28;20392;-48
2022/02/10 20:07:30;;;;;;;5.88;2.08;;;;;;;;;;5093757;28;20034;-46
2022/02/10 20:09:56;;;;;;;10.02;2.88;;;;;;;;;;5092554;28;20028;-51
2022/02/10 20:12:22;;;;;;;11.05;2.60;;;;;;;;;;5093954;28;20020;-48
2022/02/10 20:14:51;;;;;;;8.82;2.42;;;;;;;;;;5093901;28;20514;-47
2022/02/10 20:17:17;;;;;;;8.45;2.03;;;;;;;;;;5093039;28;20024;-49
2022/02/10 20:19:43;;;;;;;5.55;1.75;;;;;;;;;;5092476;28;20591;-49
2022/02/10 20:22:12;;;;;;;8.00;2.47;;;;;;;;;;5092888;28;20032;-47
2022/02/10 20:24:38;;;;;;;6.05;1.98;;;;;;;;;;5092827;28;20027;-48
2022/02/10 20:27:04;;;;;;;4.68;2.00;;;;;;;;;;5092707;28;20427;-48
2022/02/10 20:29:30;;;;;;;6.13;2.05;;;;;;;;;;5092592;28;20094;-51
2022/02/10 20:31:56;;;;;;;7.07;2.08;;;;;;;;;;5092818;28;20107;-48
2022/02/10 20:34:24;;;;;;;5.93;2.42;;;;;;;;;;5093365;28;20438;-48
2022/02/10 20:36:50;;;;;;;5.18;2.08;;;;;;;;;;5089641;28;20016;-47
2022/02/10 20:39:23;;;;;;;4.00;1.60;;;;;;;;;;5071547;28;20024;-46
2022/02/10 20:41:54;;;;;;;7.20;2.78;;;;;;;;;;5072720;28;20473;-48
2022/02/10 20:44:21;;;;;;;3.65;1.90;;;;;;;;;;5072857;28;20070;-50
2022/02/10 20:46:50;;;;;;;4.03;1.83;;;;;;;;;;5073200;28;20028;-49
2022/02/10 20:49:17;;;;;;;5.32;2.20;;;;;;;;;;5071904;28;20063;-49
2022/02/10 20:51:44;;;;;;;6.78;1.40;;;;;;;;;;5066457;28;20108;-49
2022/02/10 20:54:10;;;;;;;11.20;2.00;;;;;;;;;;5062495;28;20021;-48
2022/02/10 20:56:36;;;;;;;3.53;1.65;;;;;;;;;;5061450;28;20013;-48
2022/02/10 20:59:18;;;;;;;3.65;1.77;;;;;;;;;;5062854;28;20086;-45
2022/02/10 21:01:44;;;;;;;4.67;2.03;;;;;;;;;;5062376;28;20033;-45
2022/02/10 21:04:10;;;;;;;3.28;1.70;;;;;;;;;;5064325;28;20473;-52
2022/02/10 21:06:51;;;;;;;6.45;2.03;;;;;;;;;;5070925;28;20021;-45
2022/02/10 21:09:44;;;;;;;5.00;1.75;;;;;;;;;;5067780;28;20474;-46
2022/02/10 21:12:06;;;;;;;6.95;2.08;;;;;;;;;;5068950;28;20044;-46
2022/02/10 21:14:32;;;;;;;2.13;1.38;;;;;;;;;;5070362;28;20012;-45
2022/02/10 21:17:05;;;;;;;3.78;1.73;;;;;;;;;;5066459;28;20094;-47
2022/02/10 21:19:32;;;;;;;3.17;1.48;;;;;;;;;;5069868;28;20442;-47
2022/02/10 21:21:58;;;;;;;6.97;1.83;;;;;;;;;;5069597;28;20020;-46
2022/02/10 21:24:29;;;;;;;3.47;1.65;;;;;;;;;;5070193;28;20021;-46
2022/02/10 21:29:40;;;;;;;3.60;1.48;;;;;;;;;;5069096;28;20024;-48
2022/02/10 21:32:06;;;;;;;4.20;1.95;;;;;;;;;;5068877;28;20029;-49
2022/02/10 21:34:46;;;;;;;6.60;1.77;;;;;;;;;;5070088;28;20028;-49
2022/02/10 21:37:15;;;;;;;4.55;1.80;;;;;;;;;;5067657;28;21074;-47
2022/02/10 21:47:52;;;;;;;2.47;1.45;;;;;;;;;;5067718;28;20066;-47
2022/02/10 22:02:01;;;;;;;4.55;1.83;;;;;;;;;;5067450;28;20035;-50
2022/02/10 22:19:15;;;;;;;3.22;1.40;;;;;;;;;;5068854;28;20255;-45
2022/02/10 22:21:51;;;;;;;;;;;;;;;;;;5067599;28;20032;-48
2022/02/10 22:24:18;;;;;;;2.92;1.45;;;;;;;;;;5068831;28;19916;-45
2022/02/10 22:26:45;;;;;;;2.80;1.40;;;;;;;;;;5069121;28;20029;-50
2022/02/10 22:34:13;;;;;;;3.22;1.40;;;;;;;;;;5068431;28;20119;-46
2022/02/10 22:36:42;;;;;;;1.75;1.13;;;;;;;;;;5066706;28;20023;-47
2022/02/10 22:39:09;;;;;;;2.83;1.30;;;;;;;;;;5068797;28;20016;-48
2022/02/10 22:41:35;;;;;;;2.42;1.42;;;;;;;;;;5068931;28;20071;-48
2022/02/10 22:44:03;;;;;;;2.83;1.48;;;;;;;;;;5070978;28;20052;-48
2022/02/10 22:46:29;;;;;;;3.95;1.70;;;;;;;;;;5073178;28;20052;-48
2022/02/10 22:48:55;;;;;;;2.03;1.20;;;;;;;;;;5072899;28;20037;-50
2022/02/10 22:51:22;;;;;;;1.58;1.10;;;;;;;;;;5070479;28;20040;-47
2022/02/10 22:53:48;;;;;;;2.50;1.30;;;;;;;;;;5073299;28;20016;-45
2022/02/10 22:56:17;;;;;;;2.72;1.50;;;;;;;;;;5072089;28;20105;-46
2022/02/10 22:58:43;;;;;;;2.35;1.25;;;;;;;;;;5072816;28;20019;-45
2022/02/10 23:01:11;;;;;;;2.63;1.85;;;;;;;;;;5072148;28;20055;-46
2022/02/10 23:03:37;;;;;;;1.90;1.10;;;;;;;;;;5069833;28;20033;-45
2022/02/10 23:06:06;;;;;;;2.30;1.30;;;;;;;;;;5072836;28;20020;-50
2022/02/10 23:08:32;;;;;;;4.45;1.40;;;;;;;;;;5073244;28;20485;-45
2022/02/10 23:10:58;;;;;;;3.03;1.35;;;;;;;;;;5072498;28;20107;-46
2022/02/10 23:13:27;;;;;;;3.00;1.45;;;;;;;;;;5073562;28;20047;-46
2022/02/10 23:15:54;;;;;;;2.33;1.48;;;;;;;;;;5072336;28;20032;-49
2022/02/10 23:18:21;;;;;;;3.50;2.03;;;;;;;;;;5072660;28;20013;-46
2022/02/10 23:20:48;;;;;;;2.58;1.77;;;;;;;;;;5072362;28;20693;-45
2022/02/10 23:23:15;;;;;;;3.20;1.17;;;;;;;;;;5053938;28;20484;-45
2022/02/10 23:25:42;;;;;;;2.40;1.35;;;;;;;;;;5072347;28;20191;-45
2022/02/10 23:28:10;;;;;;;2.58;1.70;;;;;;;;;;5071392;28;20021;-45
2022/02/10 23:30:36;;;;;;;2.88;1.70;;;;;;;;;;5069738;28;20082;-47
2022/02/10 23:33:25;;;;;;;4.28;1.60;;;;;;;;;;5071696;28;20486;-45
2022/02/10 23:38:35;;;;;;;3.78;1.63;;;;;;;;;;5071869;28;20045;-47
2022/02/10 23:43:37;;;;;;;2.90;2.10;;;;;;;;;;5069799;28;20028;-47
2022/02/10 23:46:03;;;;;;;2.05;1.38;;;;;;;;;;5071159;28;20021;-49
2022/02/10 23:48:32;;;;;;;2.45;1.65;;;;;;;;;;5072005;28;20103;-45
2022/02/10 23:50:58;;;;;;;3.42;1.73;;;;;;;;;;5068890;28;20488;-46
2022/02/10 23:53:24;;;;;;;2.80;1.98;;;;;;;;;;5072035;28;20048;-45
2022/02/10 23:55:50;;;;;;;4.13;1.80;;;;;;;;;;5070488;28;20034;-45
